SPHO

Details ICAO SPHO (AYP)
Name CORONEL FAP ALFREDO MENDIVIL DUARTE
Region Peru
Timezone America/Lima (UTC-5.0)
Plans Departing 17
Arriving 13
Stats Elevation 8,917 ft / 2,718 m (AMSL)
Location -13.154820° -74.204416°
Runways 1
Magnetic Variation 3.873° W
Sunrise 2018-05-27 11:12:41 UTC / 2018-05-27 06:12:41 Local
Sunset 2018-05-27 22:38:11 UTC / 2018-05-27 17:38:11 Local
Advertisement - Login to hide

Runways

ID Width Length Bearing (true) Bearing (mag) Surface Threshold Offset Overrun Length
02 148 ft / 45 m 9,239 ft / 2,816 m 22.35° 26.22° Asphalt 0 ft / 0 m 0 ft / 0 m
20 148 ft / 45 m 9,239 ft / 2,816 m 202.35° 206.22° Asphalt 0 ft / 0 m 100 ft / 30 m

Map

Weather


0- 5 10 15 20 25 30 35+ Temperature / ° C

Clouds and Precipitation
Forecast for 2018-05-27 12:00 UTC. Updated 4 hours ago

Ground ~20,000 ft ~40,000 ft Winds

METAR

SPHO 271500Z VRB05KT 9999 FEW040 17/07 Q1030 RMK PP000

TAF

SPHO 271110Z 2712/2812 VRB03KT CAVOK TX24/2719Z TN06/2811Z TEMPO 2717/2720 24010KT FEW040 SCT080 TEMPO 2720/2723 06010KT

Frequencies

Tower 118.10 MHz AYACUCHO TWR
Warning: Do not use this data for real-world aviation or navigation. No guarantee of current accuracy is given.